Here is the Quick Look data you requested

The Data originates at the National Weather Service, and is made available here by the UAlbany Department of Atmospheric and Environmental Sciences

Surface Observations

KNHK 202352Z AUTO 24004KT 10SM CLR 32/24 A2986 RMK AO2 SLP112 T03220244 10372
 20322 53004 $=
KNHK 210052Z AUTO 21003KT 10SM CLR 31/26 A2985 RMK AO2 SLP109 T03110256 $
KNHK 210052Z AUTO 21003KT 10SM CLR 31/26 A2985 RMK AO2 SLP109 T03110256 $=
KNHK 210152Z AUTO 23004KT 10SM CLR 30/25 A2987 RMK AO2 SLP114 T03000250 $
KNHK 210152Z AUTO 23004KT 10SM CLR 30/25 A2987 RMK AO2 SLP114 T03000250 $=
KNHK 210252Z AUTO 21005KT 10SM CLR 30/26 A2987 RMK AO2 SLP114 T03000256 53002 $
KNHK 210252Z AUTO 21005KT 10SM CLR 30/26 A2987 RMK AO2 SLP114 T03000256 53002 $=
KNHK 210352Z AUTO 24006KT 9SM CLR 29/26 A2987 RMK AO2 SLP114 T02940256 $
KNHK 210352Z AUTO 24006KT 9SM CLR 29/26 A2987 RMK AO2 SLP114 T02940256 $=
KNHK 210452Z AUTO 23006KT 9SM CLR 29/26 A2986 RMK AO2 SLP113 T02890256
 403720272 $
KNHK 210452Z AUTO 23006KT 9SM CLR 29/26 A2986 RMK AO2 SLP113 T02890256
 403720272 $=
KNHK 210552Z AUTO 25008KT 9SM CLR 29/26 A2987 RMK AO2 SLP114 T02890256 10322
 20289 55000 $
KNHK 210552Z AUTO 25008KT 9SM CLR 29/26 A2987 RMK AO2 SLP114 T02890256 10322
 20289 55000 $=
KNHK 210652Z AUTO 28008KT 10SM CLR 30/23 A2987 RMK AO2 SLP114 T03000233 $
KNHK 210652Z AUTO 28008KT 10SM CLR 30/23 A2987 RMK AO2 SLP114 T03000233 $=
KNHK 210752Z AUTO 27008KT 10SM CLR 29/23 A2986 RMK AO2 SLP111 T02890228 $
KNHK 210752Z AUTO 27008KT 10SM CLR 29/23 A2986 RMK AO2 SLP111 T02890228 $=
KNHK 210852Z AUTO 22003KT 10SM CLR 28/23 A2984 RMK AO2 SLP103 T02780228 58010 $
KNHK 210852Z AUTO 22003KT 10SM CLR 28/23 A2984 RMK AO2 SLP103 T02780228 58010 $=
KNHK 210952Z AUTO 25006KT 10SM CLR 27/23 A2985 RMK AO2 SLP110 T02720233 $
KNHK 210952Z AUTO 25006KT 10SM CLR 27/23 A2985 RMK AO2 SLP110 T02720233 $=
KNHK 211052Z AUTO 25006KT 8SM CLR 28/25 A2987 RMK AO2 SLP114 T02780250 $
KNHK 211052Z AUTO 25006KT 8SM CLR 28/25 A2987 RMK AO2 SLP114 T02780250 $=
KNHK 211103Z 25008KT 8SM FEW220 28/25 A2988 RMK AO2 T02830250 $
KNHK 211103Z 25008KT 8SM FEW220 28/25 A2988 RMK AO2 T02830250 $=
KNHK 211152Z 26008KT 9SM FEW220 30/24 A2988 RMK AO2 SLP119 T03000244 10300
 20267 51016 $
KNHK 211152Z 26008KT 9SM FEW220 30/24 A2988 RMK AO2 SLP119 T03000244 10300
 20267 51016 $=
KNHK 211252Z 31006KT 10SM CLR 31/24 A2990 RMK AO2 SLP126 T03060244 $
KNHK 211252Z 31006KT 10SM CLR 31/24 A2990 RMK AO2 SLP126 T03060244 $=
KNHK 211252Z COR 31006KT 10SM FEW220 31/24 A2990 RMK AO2 SLP126 T03060244 $
KNHK 211252Z COR 31006KT 10SM FEW220 31/24 A2990 RMK AO2 SLP126 T03060244 $=
KNHK 211352Z 29009KT 10SM FEW220 33/24 A2990 RMK AO2 SLP126 T03330239 $
KNHK 211352Z 29009KT 10SM FEW220 33/24 A2990 RMK AO2 SLP126 T03330239 $=
KNHK 211452Z 31009KT 10SM CLR 34/23 A2990 RMK AO2 SLP126 T03440233 50007 $
KNHK 211452Z 31009KT 10SM CLR 34/23 A2990 RMK AO2 SLP126 T03440233 50007 $=
KNHK 211552Z 32011KT 10SM FEW040 36/23 A2991 RMK AO2 SLP127 T03560233 $
KNHK 211552Z 32011KT 10SM FEW040 36/23 A2991 RMK AO2 SLP127 T03560233 $=
KNHK 211652Z 33010KT 10SM FEW045 36/23 A2989 RMK AO2 SLP123 T03560228 $
KNHK 211652Z 33010KT 10SM FEW045 36/23 A2989 RMK AO2 SLP123 T03560228 $=
KNHK 211752Z 24011G15KT 10SM SCT050 37/22 A2988 RMK AO2 SLP118 T03670217 10367
 20300 58007 $
KNHK 211752Z 24011G15KT 10SM SCT050 37/22 A2988 RMK AO2 SLP118 T03670217 10367
 20300 58007 $=
KNHK 211852Z 26011KT 10SM FEW055 37/22 A2987 RMK AO2 SLP114 T03720217 $
KNHK 211852Z 26011KT 10SM FEW055 37/22 A2987 RMK AO2 SLP114 T03720217 $=
KNHK 211952Z 24007KT 10SM FEW055 37/22 A2985 RMK AO2 SLP109 T03720217 $
KNHK 211952Z 24007KT 10SM FEW055 37/22 A2985 RMK AO2 SLP109 T03720217 $=
KNHK 212052Z 26006KT 10SM FEW055 37/21 A2985 RMK AO2 SLP107 T03670211 56011 $
KNHK 212052Z 26006KT 10SM FEW055 37/21 A2985 RMK AO2 SLP107 T03670211 56011 $=
KNHK 212152Z VRB06KT 10SM FEW300 34/26 A2984 RMK AO2 SLP106 T03440256 $
KNHK 212152Z VRB06KT 10SM FEW300 34/26 A2984 RMK AO2 SLP106 T03440256 $=
KNHK 212252Z AUTO 15008KT 9SM CLR 33/27 A2984 RMK AO2 SLP105 T03280272 $
KNHK 212252Z AUTO 15008KT 9SM CLR 33/27 A2984 RMK AO2 SLP105 T03280272 $=
KNHK 212352Z AUTO 17004KT 8SM CLR 32/28 A2985 RMK AO2 SLP108 T03170278 10378
 20317 53001 $
KNHK 212352Z AUTO 17004KT 8SM CLR 32/28 A2985 RMK AO2 SLP108 T03170278 10378
 20317 53001 $=
KNHK 220052Z AUTO 24007KT 10SM CLR 32/22 A2986 RMK AO2 SLP111 T03170222 $
KNHK 220052Z AUTO 24007KT 10SM CLR 32/22 A2986 RMK AO2 SLP111 T03170222 $=
KNHK 220152Z AUTO 25005KT 10SM CLR 30/22 A2987 RMK AO2 SLP115 T03000222 $
KNHK 220152Z AUTO 25005KT 10SM CLR 30/22 A2987 RMK AO2 SLP115 T03000222 $=
KNHK 220252Z AUTO 24003KT 10SM CLR 29/22 A2988 RMK AO2 SLP118 T02940217 51009 $
KNHK 220252Z AUTO 24003KT 10SM CLR 29/22 A2988 RMK AO2 SLP118 T02940217 51009 $=
KNHK 220352Z AUTO 25005KT 10SM CLR 28/22 A2987 RMK AO2 SLP117 T02780222 $
KNHK 220352Z AUTO 25005KT 10SM CLR 28/22 A2987 RMK AO2 SLP117 T02780222 $=
KNHK 220452Z AUTO 27005KT 10SM CLR 28/22 A2989 RMK AO2 SLP120 T02780222
 403780267 $
KNHK 220452Z AUTO 27005KT 10SM CLR 28/22 A2989 RMK AO2 SLP120 T02780222
 403780267 $=
KNHK 220552Z AUTO 25006KT 10SM CLR 26/22 A2989 RMK AO2 SLP122 T02610222 10328
 20250 53004 $
KNHK 220552Z AUTO 25006KT 10SM CLR 26/22 A2989 RMK AO2 SLP122 T02610222 10328
 20250 53004 $=